Time;durP1;ratioP1;P1;durP2;ratioP2;P2;SDS_P1;SDS_P2;PMS_P1;PMS_P2;Temp;Humidity;BMP_temperature;BMP_pressure;BME280_temperature;BME280_humidity;BME280_pressure;Samples;Min_cycle;Max_cycle;Signal;HPM_P1;HPM_P2
2022/08/10 00:00:25;;;;;;;7.78;4.15;;;18.90;64.60;;;;;;5010376;28;20083;-88
2022/08/10 00:02:54;;;;;;;8.55;3.72;;;18.90;65.50;;;;;;5027530;28;20486;-88
2022/08/10 00:05:19;;;;;;;6.38;3.78;;;18.80;65.80;;;;;;5015334;28;20043;-88
2022/08/10 00:07:45;;;;;;;7.15;3.33;;;18.70;68.80;;;;;;5018457;28;20049;-88
2022/08/10 00:10:11;;;;;;;6.07;3.30;;;18.70;68.70;;;;;;5013030;28;20489;-89
2022/08/10 00:12:37;;;;;;;5.50;3.50;;;18.70;66.40;;;;;;5010434;28;20034;-87
2022/08/10 00:15:04;;;;;;;5.90;2.78;;;18.60;70.90;;;;;;5023654;28;20040;-89
2022/08/10 00:17:29;;;;;;;4.70;2.70;;;18.70;66.10;;;;;;5024503;28;20374;-87
2022/08/10 00:19:55;;;;;;;7.22;2.60;;;18.50;67.50;;;;;;5011426;28;20017;-89
2022/08/10 00:22:21;;;;;;;7.22;2.60;;;18.50;69.00;;;;;;5011060;28;20033;-89
2022/08/10 00:24:46;;;;;;;7.57;2.35;;;18.50;68.40;;;;;;5007785;28;20041;-88
2022/08/10 00:27:12;;;;;;;3.45;2.50;;;18.50;68.40;;;;;;5019769;28;20044;-88
2022/08/10 00:29:38;;;;;;;4.70;2.10;;;18.50;68.50;;;;;;5018199;28;20037;-88
2022/08/10 00:32:03;;;;;;;3.00;1.95;;;18.30;69.50;;;;;;5030178;28;20094;-89
2022/08/10 00:34:30;;;;;;;5.30;2.53;;;18.30;68.70;;;;;;5014446;28;20072;-88
2022/08/10 00:36:56;;;;;;;3.30;2.30;;;18.30;68.80;;;;;;5024293;28;20029;-89
2022/08/10 00:39:21;;;;;;;5.47;2.30;;;18.30;67.50;;;;;;5013722;28;20565;-89
2022/08/10 00:41:47;;;;;;;4.97;2.70;;;18.30;70.00;;;;;;5026515;28;20045;-87
2022/08/10 00:44:12;;;;;;;7.47;2.40;;;18.20;68.50;;;;;;5014777;28;20030;-88
2022/08/10 00:46:38;;;;;;;3.30;2.10;;;18.20;70.70;;;;;;5012042;28;20049;-88
2022/08/10 00:49:04;;;;;;;4.18;2.30;;;18.10;72.90;;;;;;5012235;28;20036;-90
2022/08/10 00:51:29;;;;;;;2.75;1.85;;;18.10;68.50;;;;;;5024619;28;20436;-89
2022/08/10 00:53:55;;;;;;;5.72;2.25;;;18.00;68.30;;;;;;5027318;28;20025;-87
2022/08/10 00:56:20;;;;;;;5.35;2.67;;;18.00;72.70;;;;;;5016231;28;20041;-88
2022/08/10 00:58:46;;;;;;;4.32;2.00;;;17.90;74.00;;;;;;5014445;28;20021;-87
2022/08/10 01:01:12;;;;;;;5.07;2.30;;;17.80;68.80;;;;;;5014934;28;20034;-88
2022/08/10 01:03:38;;;;;;;4.07;2.53;;;17.90;74.90;;;;;;5010641;28;20036;-88
2022/08/10 01:06:28;;;;;;;4.65;2.40;;;17.80;73.20;;;;;;5027589;28;20083;-88
2022/08/10 01:09:01;;;;;;;4.72;2.50;;;17.80;70.40;;;;;;5010372;28;20160;-87
2022/08/10 01:11:45;;;;;;;7.15;2.10;;;17.80;72.00;;;;;;5009998;28;20424;-88
2022/08/10 01:14:20;;;;;;;4.80;2.22;;;17.70;76.10;;;;;;5025392;28;20520;-89
2022/08/10 01:16:59;;;;;;;6.72;2.50;;;17.70;76.80;;;;;;4996371;28;20030;-87
2022/08/10 01:19:49;;;;;;;4.28;2.30;;;17.60;73.20;;;;;;4989666;28;20045;-87
2022/08/10 01:22:29;;;;;;;4.85;2.33;;;17.60;70.20;;;;;;5027049;28;20034;-88
2022/08/10 01:25:16;;;;;;;3.28;2.72;;;17.60;71.10;;;;;;5029624;28;20099;-88
2022/08/10 01:27:55;;;;;;;6.43;2.38;;;17.60;69.20;;;;;;5043156;28;20728;-87
2022/08/10 01:30:21;;;;;;;5.60;3.08;;;17.50;74.60;;;;;;5014628;28;20029;-89
2022/08/10 01:32:48;;;;;;;3.13;2.38;;;17.40;76.40;;;;;;5009718;28;20506;-88
2022/08/10 01:35:30;;;;;;;8.95;2.50;;;17.40;74.80;;;;;;5011428;28;20037;-89
2022/08/10 01:38:05;;;;;;;4.00;2.65;;;17.30;76.90;;;;;;5011349;28;20030;-88
2022/08/10 01:40:36;;;;;;;6.93;2.75;;;17.20;79.60;;;;;;5011828;28;20033;-90
2022/08/10 01:43:03;;;;;;;3.22;2.42;;;17.10;75.70;;;;;;5038711;28;20641;-89
2022/08/10 01:45:29;;;;;;;3.53;2.63;;;17.20;77.40;;;;;;5010702;28;20026;-91
2022/08/10 01:50:39;;;;;;;4.03;2.67;;;17.10;75.20;;;;;;5023720;28;20091;-88
2022/08/10 01:53:07;;;;;;;5.35;2.58;;;17.10;78.30;;;;;;5022710;28;20461;-88
2022/08/10 01:55:32;;;;;;;4.65;2.70;;;17.40;76.20;;;;;;5026265;28;20500;-87
2022/08/10 01:57:59;;;;;;;3.78;3.05;;;17.00;79.60;;;;;;5025664;28;20121;-88
2022/08/10 02:00:25;;;;;;;2.95;2.50;;;17.00;81.80;;;;;;5013676;28;20037;-88
2022/08/10 02:02:50;;;;;;;5.15;3.17;;;16.90;82.40;;;;;;5010332;28;20075;-88
2022/08/10 02:05:17;;;;;;;6.10;3.00;;;16.90;84.10;;;;;;5015218;28;20061;-88
2022/08/10 02:07:43;;;;;;;3.10;2.75;;;16.90;82.60;;;;;;5024317;28;20025;-88
2022/08/10 02:10:11;;;;;;;6.03;2.40;;;16.80;85.90;;;;;;5035044;28;20044;-89
2022/08/10 02:12:37;;;;;;;4.22;2.78;;;16.70;81.80;;;;;;5015365;28;20088;-88
2022/08/10 02:15:21;;;;;;;3.15;2.80;;;16.70;83.30;;;;;;5008007;28;20041;-88
2022/08/10 02:17:51;;;;;;;3.30;3.00;;;16.70;88.70;;;;;;5027976;28;20366;-88
2022/08/10 02:20:19;;;;;;;3.10;2.72;;;16.70;90.00;;;;;;5013010;28;20061;-89
2022/08/10 02:22:45;;;;;;;4.95;3.00;;;16.60;91.30;;;;;;5011390;28;20083;-88
2022/08/10 02:25:12;;;;;;;6.80;3.20;;;16.60;88.10;;;;;;5016229;28;20032;-88
2022/08/10 02:27:37;;;;;;;2.75;2.45;;;16.50;86.40;;;;;;5007048;28;20029;-88
2022/08/10 02:30:04;;;;;;;3.70;3.00;;;16.60;88.80;;;;;;5009173;28;20041;-89
2022/08/10 02:32:29;;;;;;;4.47;3.03;;;16.50;83.00;;;;;;4999987;28;20034;-88
2022/08/10 02:34:55;;;;;;;3.85;2.65;;;16.50;92.10;;;;;;5024568;28;20599;-87
2022/08/10 02:37:22;;;;;;;4.53;3.13;;;16.40;90.30;;;;;;4992611;28;20045;-88
2022/08/10 02:39:47;;;;;;;4.13;3.35;;;16.40;92.20;;;;;;5012878;28;20034;-88
2022/08/10 02:42:24;;;;;;;6.40;3.20;;;16.40;91.10;;;;;;5022519;28;20033;-89
2022/08/10 02:44:57;;;;;;;6.85;3.90;;;16.30;89.00;;;;;;5010379;28;20394;-89
2022/08/10 02:47:30;;;;;;;7.43;2.88;;;16.30;95.50;;;;;;5040181;28;20090;-88
2022/08/10 02:50:17;;;;;;;6.75;3.03;;;16.30;96.20;;;;;;4984496;28;1280985;-88
2022/08/10 02:52:45;;;;;;;4.68;2.90;;;16.30;95.50;;;;;;5021756;28;20025;-88
2022/08/10 02:55:36;;;;;;;5.65;2.90;;;16.40;90.40;;;;;;5007998;28;20785;-87
2022/08/10 02:58:06;;;;;;;3.95;3.05;;;16.50;85.60;;;;;;5010872;28;20531;-88
2022/08/10 03:00:31;;;;;;;5.55;3.45;;;16.50;87.50;;;;;;4995779;28;20029;-87
2022/08/10 03:02:57;;;;;;;5.13;3.25;;;16.40;87.80;;;;;;5014899;28;20023;-89
2022/08/10 03:05:22;;;;;;;5.65;3.38;;;16.30;88.60;;;;;;5007685;28;20021;-88
2022/08/10 03:07:52;;;;;;;5.03;3.83;;;16.10;95.40;;;;;;4996590;28;20033;-90
2022/08/10 03:10:20;;;;;;;7.05;3.70;;;16.00;94.90;;;;;;5009541;28;20048;-88
2022/08/10 03:12:54;;;;;;;9.90;3.65;;;15.90;96.10;;;;;;5021674;28;20029;-88
2022/08/10 03:15:20;;;;;;;6.47;3.97;;;16.00;97.00;;;;;;5012141;28;20033;-88
2022/08/10 03:17:46;;;;;;;4.95;3.83;;;16.00;97.50;;;;;;5029713;28;20030;-90
2022/08/10 03:20:12;;;;;;;5.50;3.15;;;15.90;97.30;;;;;;5008425;28;20083;-88
2022/08/10 03:22:39;;;;;;;5.85;3.70;;;15.90;94.40;;;;;;5014280;28;20037;-88
2022/08/10 03:25:05;;;;;;;5.78;3.53;;;15.90;98.10;;;;;;5016003;28;20056;-89
2022/08/10 03:27:31;;;;;;;7.80;3.63;;;15.80;97.80;;;;;;5021996;28;20125;-88
2022/08/10 03:29:56;;;;;;;5.25;3.78;;;15.70;97.10;;;;;;5027495;28;20426;-90
2022/08/10 03:32:22;;;;;;;5.00;3.50;;;15.70;95.50;;;;;;5009043;28;20029;-88
2022/08/10 03:34:48;;;;;;;4.93;3.90;;;15.70;96.00;;;;;;5007322;28;20696;-88
2022/08/10 03:37:14;;;;;;;6.38;3.70;;;15.70;98.20;;;;;;5032463;28;20037;-88
2022/08/10 03:39:39;;;;;;;6.60;3.67;;;15.70;96.30;;;;;;5016559;28;20033;-87
2022/08/10 03:42:07;;;;;;;8.55;4.40;;;15.70;97.20;;;;;;5029246;28;20448;-88
2022/08/10 03:44:33;;;;;;;4.55;3.83;;;15.70;99.90;;;;;;5012039;28;20057;-87
2022/08/10 03:46:59;;;;;;;5.55;4.15;;;15.60;99.60;;;;;;5008423;28;20482;-88
2022/08/10 03:49:25;;;;;;;5.88;4.25;;;15.50;99.80;;;;;;5019794;28;20533;-89
2022/08/10 03:51:50;;;;;;;11.60;4.43;;;15.60;99.90;;;;;;5038743;28;20026;-88
2022/08/10 03:54:16;;;;;;;7.05;4.40;;;15.70;99.60;;;;;;5020450;28;20076;-89
2022/08/10 03:56:42;;;;;;;10.57;4.20;;;15.60;98.40;;;;;;5022088;28;20026;-90
2022/08/10 03:59:10;;;;;;;8.07;4.22;;;15.60;99.90;;;;;;5031366;28;20543;-89
2022/08/10 04:01:35;;;;;;;13.55;4.45;;;15.60;99.90;;;;;;5010299;28;20025;-90
2022/08/10 04:04:02;;;;;;;14.93;4.40;;;15.30;98.80;;;;;;5021394;28;20032;-89
2022/08/10 04:06:28;;;;;;;4.95;4.18;;;15.50;99.90;;;;;;5020565;28;20050;-89
2022/08/10 04:08:54;;;;;;;4.60;4.00;;;15.50;99.90;;;;;;5013127;28;20489;-88
2022/08/10 04:11:20;;;;;;;7.45;4.38;;;15.40;99.90;;;;;;5019395;28;20060;-88
2022/08/10 04:13:46;;;;;;;5.90;4.40;;;15.50;99.70;;;;;;5017115;28;20029;-88
2022/08/10 04:16:12;;;;;;;9.77;4.60;;;15.50;99.90;;;;;;5031983;28;20049;-87
2022/08/10 04:18:37;;;;;;;10.05;4.80;;;15.50;99.90;;;;;;5020744;28;20508;-87
2022/08/10 04:21:09;;;;;;;6.13;4.28;;;15.50;99.00;;;;;;5034743;28;20029;-89
2022/08/10 04:23:36;;;;;;;9.05;5.35;;;15.50;99.90;;;;;;5034591;28;20097;-88
2022/08/10 04:26:01;;;;;;;7.55;4.45;;;15.50;98.40;;;;;;5014564;28;20053;-88
2022/08/10 04:28:27;;;;;;;6.05;4.63;;;15.40;99.10;;;;;;5017248;28;20103;-88
2022/08/10 04:30:53;;;;;;;9.88;5.18;;;15.30;99.90;;;;;;5025436;28;20049;-89
2022/08/10 04:33:21;;;;;;;7.70;4.78;;;15.40;99.90;;;;;;5011849;28;20421;-88
2022/08/10 04:35:47;;;;;;;7.05;4.20;;;15.30;99.90;;;;;;5015636;28;20036;-88
2022/08/10 04:38:13;;;;;;;5.70;4.70;;;15.40;99.90;;;;;;5017844;28;20393;-89
2022/08/10 04:40:39;;;;;;;7.13;4.97;;;15.50;99.90;;;;;;5017458;28;20029;-88
2022/08/10 04:43:05;;;;;;;5.10;3.70;;;15.60;99.90;;;;;;5028637;28;21249;-89
2022/08/10 04:45:31;;;;;;;9.80;5.38;;;15.80;96.40;;;;;;5013834;28;20437;-88
2022/08/10 04:47:56;;;;;;;5.32;4.72;;;15.90;98.70;;;;;;5034844;28;20099;-89
2022/08/10 04:50:22;;;;;;;5.15;4.28;;;16.00;97.50;;;;;;5020559;28;20048;-88
2022/08/10 04:52:48;;;;;;;5.53;3.90;;;16.00;95.20;;;;;;5013508;28;20512;-88
2022/08/10 04:55:13;;;;;;;7.53;3.70;;;16.10;94.00;;;;;;5017204;28;20048;-88
2022/08/10 04:57:39;;;;;;;8.45;4.07;;;16.20;93.10;;;;;;5012148;28;20071;-88
2022/08/10 05:00:06;;;;;;;6.78;4.88;;;16.20;93.00;;;;;;5023037;28;20066;-88
2022/08/10 05:02:31;;;;;;;8.63;5.40;;;16.20;93.20;;;;;;5012250;28;20033;-87
2022/08/10 05:04:57;;;;;;;6.18;5.50;;;16.20;93.30;;;;;;5027838;28;20366;-87
2022/08/10 05:07:22;;;;;;;11.30;4.93;;;16.30;93.60;;;;;;5027956;28;20032;-88
2022/08/10 05:09:49;;;;;;;6.75;4.30;;;16.30;95.40;;;;;;5014166;28;20045;-88
2022/08/10 05:12:14;;;;;;;5.95;4.18;;;16.50;94.00;;;;;;5025955;28;20409;-88
2022/08/10 05:14:40;;;;;;;17.42;4.88;;;16.60;95.20;;;;;;5013205;28;20021;-88
2022/08/10 05:17:06;;;;;;;5.43;4.13;;;16.60;94.60;;;;;;5016233;28;20120;-88
2022/08/10 05:19:32;;;;;;;5.78;3.90;;;16.80;93.90;;;;;;5011894;28;20097;-88
2022/08/10 05:21:58;;;;;;;9.05;4.88;;;16.80;94.30;;;;;;5033696;28;20159;-89
2022/08/10 05:24:23;;;;;;;6.53;4.63;;;16.90;94.60;;;;;;5030150;28;20029;-88
2022/08/10 05:26:49;;;;;;;6.15;3.78;;;17.00;94.80;;;;;;5010417;28;20112;-88
2022/08/10 05:29:14;;;;;;;7.18;4.15;;;16.90;93.80;;;;;;5015027;28;20026;-86
2022/08/10 05:31:40;;;;;;;5.20;3.78;;;17.30;94.10;;;;;;5009492;28;20029;-89
2022/08/10 05:34:05;;;;;;;6.90;4.10;;;17.50;94.10;;;;;;5011530;28;20052;-90
2022/08/10 05:36:32;;;;;;;6.75;4.47;;;17.60;93.80;;;;;;5027422;28;20043;-88
2022/08/10 05:38:58;;;;;;;6.40;4.40;;;17.80;93.70;;;;;;5028190;28;20030;-88
2022/08/10 05:41:23;;;;;;;6.25;4.43;;;18.00;93.60;;;;;;5030364;28;20030;-89
2022/08/10 05:43:50;;;;;;;6.72;4.00;;;18.10;94.00;;;;;;5014628;28;20045;-88
2022/08/10 05:46:15;;;;;;;8.85;4.45;;;18.20;94.00;;;;;;5010433;28;20553;-86
2022/08/10 05:48:41;;;;;;;5.97;4.07;;;18.90;93.90;;;;;;5013421;28;20025;-88
2022/08/10 05:51:21;;;;;;;7.38;4.50;;;18.50;93.20;;;;;;5025137;28;20721;-89
2022/08/10 05:53:47;;;;;;;4.70;4.15;;;18.70;93.00;;;;;;5010577;28;20022;-88
2022/08/10 05:56:12;;;;;;;8.13;4.43;;;18.90;93.40;;;;;;5011054;28;20485;-89
2022/08/10 05:58:38;;;;;;;4.03;3.63;;;19.00;93.00;;;;;;5019951;28;20111;-89
2022/08/10 06:01:05;;;;;;;12.35;5.25;;;19.10;92.50;;;;;;5012613;28;20376;-87
2022/08/10 06:03:35;;;;;;;13.15;4.57;;;19.30;92.90;;;;;;5027055;28;20489;-88
2022/08/10 06:06:00;;;;;;;6.65;4.30;;;19.40;93.40;;;;;;4991878;28;20034;-88
2022/08/10 06:08:27;;;;;;;10.57;4.78;;;19.60;93.40;;;;;;5010705;28;20034;-87
2022/08/10 06:10:54;;;;;;;6.82;4.18;;;19.80;93.00;;;;;;5015125;28;20066;-90
2022/08/10 06:16:08;;;;;;;5.80;4.22;;;20.20;93.10;;;;;;5009141;28;20060;-90
2022/08/10 06:18:35;;;;;;;4.90;3.95;;;20.40;93.10;;;;;;5027182;28;20046;-87
2022/08/10 06:21:01;;;;;;;11.00;4.78;;;20.50;92.70;;;;;;5011740;28;20037;-89
2022/08/10 06:23:27;;;;;;;9.40;4.57;;;20.70;93.10;;;;;;5011643;28;20095;-87
2022/08/10 06:25:54;;;;;;;8.30;4.15;;;20.90;93.00;;;;;;5033934;28;20030;-88
2022/08/10 06:28:19;;;;;;;8.20;4.85;;;21.00;92.50;;;;;;5012555;28;20523;-90
2022/08/10 06:30:45;;;;;;;7.78;4.53;;;21.10;92.30;;;;;;5014385;28;20037;-89
2022/08/10 06:33:11;;;;;;;7.55;4.18;;;21.30;92.60;;;;;;5022755;28;20033;-90
2022/08/10 06:35:36;;;;;;;4.97;3.75;;;21.40;91.90;;;;;;5009853;28;20124;-89
2022/08/10 06:38:03;;;;;;;5.97;3.33;;;21.50;91.10;;;;;;5011125;28;20036;-89
2022/08/10 06:40:38;;;;;;;6.38;4.13;;;21.40;89.40;;;;;;5009585;28;20109;-92
2022/08/10 06:43:05;;;;;;;4.28;3.38;;;21.80;91.60;;;;;;5032916;28;20029;-89
2022/08/10 06:45:34;;;;;;;4.00;3.45;;;22.00;89.30;;;;;;5027451;28;20049;-90
2022/08/10 06:48:12;;;;;;;8.85;3.90;;;22.00;90.60;;;;;;5009107;28;20101;-90
2022/08/10 06:50:47;;;;;;;4.22;3.60;;;22.20;90.80;;;;;;5008667;28;20045;-91
2022/08/10 06:53:19;;;;;;;7.43;4.28;;;22.40;90.60;;;;;;5011074;28;20026;-90
2022/08/10 06:55:52;;;;;;;8.77;3.90;;;22.50;90.80;;;;;;5009477;28;20034;-90
2022/08/10 06:58:20;;;;;;;7.55;3.42;;;22.90;90.10;;;;;;5010267;28;20056;-89
2022/08/10 07:00:45;;;;;;;6.22;2.85;;;22.90;90.20;;;;;;5017442;28;20034;-91
2022/08/10 07:03:11;;;;;;;9.70;3.88;;;23.00;89.30;;;;;;5032390;28;20041;-90
2022/08/10 07:05:38;;;;;;;5.47;3.03;;;23.20;89.40;;;;;;5011313;28;20040;-90
2022/08/10 07:08:03;;;;;;;7.18;4.00;;;23.40;88.20;;;;;;5008365;28;20088;-91
2022/08/10 07:10:29;;;;;;;9.68;4.00;;;23.50;87.90;;;;;;5027819;28;20486;-91
2022/08/10 07:12:56;;;;;;;5.40;3.08;;;23.50;87.10;;;;;;5011826;28;20111;-91
2022/08/10 07:15:22;;;;;;;3.90;2.40;;;23.70;85.50;;;;;;5006438;28;20406;-89
2022/08/10 07:17:48;;;;;;;4.53;2.55;;;23.60;85.90;;;;;;5011013;28;20029;-90
2022/08/10 07:20:18;;;;;;;4.05;2.75;;;24.00;81.20;;;;;;5015062;28;20030;-90
2022/08/10 07:22:48;;;;;;;10.82;4.28;;;24.10;85.50;;;;;;5028751;28;20064;-90
2022/08/10 07:25:23;;;;;;;6.40;3.35;;;24.30;84.10;;;;;;5012696;28;20033;-91
2022/08/10 07:27:49;;;;;;;8.02;2.10;;;24.40;83.60;;;;;;5017731;28;20033;-90
2022/08/10 07:30:15;;;;;;;9.32;2.95;;;24.50;77.70;;;;;;5019209;28;20057;-90
2022/08/10 07:32:42;;;;;;;8.02;3.67;;;24.60;82.10;;;;;;5013696;28;20057;-91
2022/08/10 07:35:10;;;;;;;5.45;3.00;;;24.70;81.10;;;;;;5019163;28;20037;-91
2022/08/10 07:37:35;;;;;;;3.92;2.70;;;25.00;81.20;;;;;;5013668;28;20039;-92
2022/08/10 07:40:02;;;;;;;5.35;2.50;;;25.20;81.10;;;;;;5012445;28;20397;-92
2022/08/10 07:42:28;;;;;;;5.32;3.10;;;25.30;78.20;;;;;;5015225;28;20036;-89
2022/08/10 07:44:53;;;;;;;5.05;3.17;;;25.50;79.70;;;;;;5016120;28;20029;-91
2022/08/10 07:47:23;;;;;;;12.00;3.40;;;25.70;77.90;;;;;;5032052;28;20029;-90
2022/08/10 07:49:51;;;;;;;5.95;3.22;;;25.80;77.40;;;;;;5013353;28;20045;-90
2022/08/10 07:52:16;;;;;;;8.30;3.55;;;25.90;75.80;;;;;;5020573;28;20033;-91
2022/08/10 07:54:44;;;;;;;10.25;4.30;;;26.00;74.60;;;;;;5014532;28;20029;-92
2022/08/10 07:57:16;;;;;;;3.08;2.83;;;26.20;74.00;;;;;;5017633;28;20027;-91
2022/08/10 07:59:46;;;;;;;8.88;3.60;;;26.20;73.00;;;;;;5037010;28;20439;-90
2022/08/10 08:02:29;;;;;;;12.18;4.05;;;26.30;72.80;;;;;;5021264;28;20031;-90
2022/08/10 08:04:59;;;;;;;8.98;3.17;;;26.50;72.90;;;;;;5013381;28;20363;-89
2022/08/10 08:07:25;;;;;;;6.32;2.90;;;26.70;72.00;;;;;;5019009;28;20461;-90
2022/08/10 08:09:51;;;;;;;5.10;2.92;;;26.70;71.90;;;;;;5017926;28;20040;-90
2022/08/10 08:12:17;;;;;;;7.97;2.95;;;26.90;71.30;;;;;;5026804;28;20029;-90
2022/08/10 08:14:43;;;;;;;8.93;3.10;;;27.00;69.90;;;;;;5018264;28;20120;-90
2022/08/10 08:17:10;;;;;;;8.93;3.00;;;27.10;68.80;;;;;;5032138;28;20298;-87
2022/08/10 08:19:35;;;;;;;7.40;3.20;;;27.20;67.60;;;;;;5014083;28;20477;-91
2022/08/10 08:22:02;;;;;;;9.52;3.60;;;27.30;67.50;;;;;;5010353;28;20029;-90
2022/08/10 08:24:28;;;;;;;9.05;2.95;;;27.50;64.80;;;;;;5017454;28;20449;-89
2022/08/10 08:26:54;;;;;;;7.13;2.72;;;27.60;65.40;;;;;;4992788;28;20060;-90
2022/08/10 08:29:20;;;;;;;7.57;3.40;;;27.70;65.00;;;;;;5015711;28;20038;-90
2022/08/10 08:31:45;;;;;;;7.93;2.95;;;27.80;64.50;;;;;;5032162;28;20045;-89
2022/08/10 08:34:11;;;;;;;9.02;3.55;;;27.80;63.00;;;;;;5013774;28;20034;-90
2022/08/10 08:36:38;;;;;;;7.55;3.30;;;27.90;63.70;;;;;;5030450;28;20119;-91
2022/08/10 08:39:04;;;;;;;5.45;2.58;;;28.00;63.70;;;;;;5013094;28;20052;-89
2022/08/10 08:41:52;;;;;;;7.93;2.60;;;28.20;63.70;;;;;;5016279;28;20025;-90
2022/08/10 08:44:24;;;;;;;6.28;2.63;;;28.20;62.20;;;;;;5025652;28;20033;-90
2022/08/10 08:47:06;;;;;;;4.68;3.13;;;28.40;62.90;;;;;;5024467;28;20033;-89
2022/08/10 08:49:47;;;;;;;8.73;3.30;;;28.50;61.50;;;;;;5013158;28;20509;-89
2022/08/10 08:52:51;;;;;;;5.95;3.20;;;28.70;60.30;;;;;;5027216;28;20029;-88
2022/08/10 08:55:35;;;;;;;4.80;3.10;;;28.80;60.00;;;;;;4951642;28;20265;-89
2022/08/10 08:58:17;;;;;;;7.90;2.80;;;28.90;60.20;;;;;;5022490;28;20026;-89
2022/08/10 09:01:18;;;;;;;6.43;2.65;;;29.10;59.40;;;;;;5030385;28;20038;-88
2022/08/10 09:04:12;;;;;;;7.57;2.70;;;29.10;60.20;;;;;;5026675;28;20038;-90
2022/08/10 09:07:17;;;;;;;13.07;3.42;;;29.10;59.80;;;;;;5013162;28;20030;-90
2022/08/10 09:09:47;;;;;;;6.40;2.70;;;29.20;59.20;;;;;;5043416;28;20036;-88
2022/08/10 09:13:07;;;;;;;3.83;2.55;;;29.40;59.20;;;;;;5014874;28;20363;-88
2022/08/10 09:15:53;;;;;;;5.80;2.75;;;29.60;57.90;;;;;;4969035;28;20376;-88
2022/08/10 09:18:22;;;;;;;9.02;2.92;;;29.70;57.20;;;;;;5011622;28;20152;-89
2022/08/10 09:20:57;;;;;;;6.00;2.75;;;29.80;57.10;;;;;;5011054;28;20117;-88
2022/08/10 09:23:38;;;;;;;5.95;3.38;;;29.90;58.20;;;;;;5027426;28;20386;-89
2022/08/10 09:26:11;;;;;;;16.67;3.38;;;30.00;58.00;;;;;;5010413;28;20172;-89
2022/08/10 09:28:39;;;;;;;7.15;2.83;;;30.10;57.70;;;;;;5006185;28;20033;-88
2022/08/10 09:31:06;;;;;;;8.10;3.20;;;30.30;57.30;;;;;;5025531;28;20881;-88
2022/08/10 09:33:53;;;;;;;5.22;3.05;;;30.50;56.00;;;;;;5011036;28;20123;-88
2022/08/10 09:36:22;;;;;;;4.93;2.60;;;30.60;53.40;;;;;;5044662;28;20025;-88
2022/08/10 09:39:09;;;;;;;8.52;3.15;;;30.50;55.50;;;;;;5028171;28;20033;-88
2022/08/10 09:41:48;;;;;;;6.70;3.08;;;30.60;53.10;;;;;;5002556;28;20079;-89
2022/08/10 09:44:38;;;;;;;5.53;3.03;;;30.70;53.50;;;;;;5027459;28;20034;-90
2022/08/10 09:47:26;;;;;;;4.80;2.55;;;30.90;52.80;;;;;;5040281;28;20565;-89
2022/08/10 09:50:22;;;;;;;6.85;2.67;;;31.00;53.90;;;;;;5026140;28;20042;-87
2022/08/10 09:52:55;;;;;;;7.47;2.80;;;31.10;51.30;;;;;;5007147;28;20428;-87
2022/08/10 09:55:39;;;;;;;3.55;2.80;;;31.20;52.20;;;;;;5010236;28;20541;-89
2022/08/10 09:58:17;;;;;;;4.53;2.90;;;31.40;52.20;;;;;;5023718;28;20029;-88
2022/08/10 10:00:50;;;;;;;4.43;2.90;;;31.50;51.30;;;;;;5033218;28;20059;-87
2022/08/10 10:03:25;;;;;;;6.20;2.90;;;31.50;50.60;;;;;;5014637;28;20026;-88
2022/08/10 10:06:02;;;;;;;;;;;31.60;50.20;;;;;;5028013;28;20021;-87
2022/08/10 10:08:36;;;;;;;4.75;2.58;;;31.80;50.70;;;;;;5006036;28;19996;-88
2022/08/10 10:11:15;;;;;;;5.85;2.65;;;32.00;49.40;;;;;;5025246;28;20037;-87
2022/08/10 10:14:12;;;;;;;5.78;2.75;;;31.90;47.00;;;;;;5017523;28;20034;-88
2022/08/10 10:16:42;;;;;;;5.90;2.78;;;31.90;48.70;;;;;;5023451;28;20558;-89
2022/08/10 10:19:18;;;;;;;3.03;2.17;;;32.00;47.20;;;;;;5011052;28;20606;-89
2022/08/10 10:21:51;;;;;;;10.30;2.58;;;32.10;48.30;;;;;;5030184;28;20034;-89
2022/08/10 10:24:21;;;;;;;5.32;3.08;;;32.10;46.70;;;;;;5044319;28;20045;-89
2022/08/10 10:26:59;;;;;;;10.02;3.00;;;32.30;45.30;;;;;;5043382;28;20081;-88
2022/08/10 10:29:41;;;;;;;4.45;2.75;;;32.30;45.20;;;;;;5006805;28;20053;-88
2022/08/10 10:32:33;;;;;;;3.85;2.63;;;32.30;47.60;;;;;;5008299;28;20109;-89
2022/08/10 10:35:00;;;;;;;3.63;2.97;;;32.40;45.80;;;;;;5010236;28;20025;-88
2022/08/10 10:37:25;;;;;;;6.43;2.55;;;32.70;46.80;;;;;;5030592;28;20030;-87
2022/08/10 10:39:52;;;;;;;6.45;2.70;;;32.60;47.40;;;;;;5012447;28;20033;-87
2022/08/10 10:42:45;;;;;;;5.93;2.50;;;32.50;47.30;;;;;;5007781;28;20030;-88
2022/08/10 10:45:48;;;;;;;5.60;2.95;;;32.60;45.70;;;;;;5026851;28;20603;-89
2022/08/10 10:48:51;;;;;;;9.25;2.97;;;32.80;47.30;;;;;;5025365;28;20392;-87
2022/08/10 10:51:47;;;;;;;15.75;3.58;;;32.90;46.70;;;;;;5005821;28;20033;-89
2022/08/10 10:54:31;;;;;;;;;;;33.00;45.50;;;;;;5025668;28;20485;-88
2022/08/10 10:57:21;;;;;;;5.20;3.85;;;33.00;45.20;;;;;;5023263;28;20357;-87
2022/08/10 11:00:09;;;;;;;4.78;2.95;;;33.10;46.20;;;;;;5011428;28;20054;-88
2022/08/10 11:02:56;;;;;;;5.55;2.95;;;33.10;44.30;;;;;;5023479;28;20363;-88
2022/08/10 11:05:46;;;;;;;6.20;2.83;;;33.10;45.80;;;;;;5016302;28;20370;-88
2022/08/10 11:08:15;;;;;;;4.43;2.45;;;33.20;45.30;;;;;;5034822;28;20033;-88
2022/08/10 11:10:51;;;;;;;3.08;2.50;;;33.50;47.00;;;;;;5017151;28;20033;-88
2022/08/10 11:13:34;;;;;;;;;;;33.70;45.70;;;;;;5031723;28;20053;-88
2022/08/10 11:16:10;;;;;;;5.55;3.03;;;33.70;43.90;;;;;;5030832;28;19932;-88
2022/08/10 11:19:10;;;;;;;9.70;2.55;;;33.70;44.00;;;;;;4997972;28;20393;-88
2022/08/10 11:21:43;;;;;;;2.90;2.70;;;33.70;44.60;;;;;;5015718;28;20644;-88
2022/08/10 11:25:00;;;;;;;4.85;2.65;;;34.70;44.70;;;;;;5000765;28;20033;-88
2022/08/10 11:27:57;;;;;;;5.03;2.83;;;34.50;44.50;;;;;;5013222;28;20080;-88
2022/08/10 11:30:37;;;;;;;2.90;2.70;;;34.40;43.00;;;;;;5022742;28;20030;-89
2022/08/10 11:33:36;;;;;;;2.70;2.50;;;34.20;42.80;;;;;;5011720;28;20400;-90
2022/08/10 11:36:18;;;;;;;5.80;2.85;;;34.20;42.60;;;;;;5023795;28;20544;-87
2022/08/10 11:39:02;;;;;;;4.80;2.88;;;34.30;43.60;;;;;;5012429;28;20064;-89
2022/08/10 11:41:43;;;;;;;6.97;2.60;;;34.40;43.20;;;;;;5012312;28;20139;-89
2022/08/10 11:44:47;;;;;;;5.43;2.47;;;34.50;42.90;;;;;;4991149;28;20030;-87
2022/08/10 11:47:34;;;;;;;3.38;2.60;;;34.70;42.50;;;;;;4991792;28;20032;-89
2022/08/10 11:50:14;;;;;;;2.42;2.22;;;34.80;41.90;;;;;;4997684;28;20451;-88
2022/08/10 11:53:05;;;;;;;9.05;2.50;;;34.90;41.90;;;;;;5009395;28;20034;-89
2022/08/10 11:55:31;;;;;;;6.63;2.50;;;34.80;41.50;;;;;;4993143;28;20030;-91
2022/08/10 12:04:30;;;;;;;6.10;2.70;;;34.70;40.10;;;;;;5007014;28;20065;-88
2022/08/10 12:06:56;;;;;;;6.78;2.25;;;34.70;39.30;;;;;;4997610;28;20114;-88
2022/08/10 12:09:23;;;;;;;9.02;2.10;;;34.70;38.90;;;;;;5024232;28;20523;-87
2022/08/10 12:11:51;;;;;;;5.10;2.10;;;34.80;39.40;;;;;;5004448;28;20676;-86
2022/08/10 12:14:33;;;;;;;3.20;2.10;;;34.80;40.50;;;;;;4995047;28;20560;-86
2022/08/10 12:17:21;;;;;;;5.53;1.85;;;35.00;39.60;;;;;;4993131;28;20029;-87
2022/08/10 12:20:04;;;;;;;3.90;1.92;;;34.80;38.00;;;;;;4993413;28;20091;-87
2022/08/10 12:22:55;;;;;;;3.03;2.15;;;34.90;38.80;;;;;;4998125;28;20034;-89
2022/08/10 12:25:35;;;;;;;7.22;2.00;;;34.80;39.60;;;;;;4988528;28;20034;-87
2022/08/10 12:28:19;;;;;;;3.00;1.92;;;34.90;40.10;;;;;;5008083;28;20041;-88
2022/08/10 12:31:03;;;;;;;5.07;2.03;;;35.10;40.20;;;;;;5010598;28;20048;-88
2022/08/10 12:33:33;;;;;;;3.92;2.10;;;35.80;40.20;;;;;;5013152;28;20033;-90
2022/08/10 12:36:16;;;;;;;4.82;2.13;;;35.80;40.00;;;;;;5028077;28;20131;-88
2022/08/10 12:39:02;;;;;;;5.45;2.20;;;35.60;38.00;;;;;;5002384;28;20041;-87
2022/08/10 12:41:33;;;;;;;3.45;1.55;;;35.50;39.20;;;;;;5012912;28;20652;-87
2022/08/10 12:44:24;;;;;;;6.90;2.10;;;35.60;38.80;;;;;;4982907;28;20044;-88
2022/08/10 12:47:10;;;;;;;2.45;2.10;;;35.60;38.90;;;;;;5013067;28;20049;-88
2022/08/10 12:49:39;;;;;;;2.70;2.03;;;36.00;38.50;;;;;;5020592;28;20049;-87
2022/08/10 12:52:10;;;;;;;3.75;1.90;;;35.80;38.90;;;;;;5010967;28;20388;-87
2022/08/10 12:54:36;;;;;;;2.90;2.05;;;35.80;39.10;;;;;;5042144;28;20547;-88
2022/08/10 12:57:13;;;;;;;3.78;2.10;;;35.90;38.90;;;;;;5014681;28;20041;-88
2022/08/10 12:59:59;;;;;;;2.60;1.90;;;36.00;38.00;;;;;;5045419;28;20025;-87
2022/08/10 13:02:41;;;;;;;5.22;2.15;;;36.00;37.50;;;;;;5008557;28;20096;-87
2022/08/10 13:05:10;;;;;;;2.92;1.77;;;36.40;36.70;;;;;;4993867;28;20040;-88
2022/08/10 13:07:39;;;;;;;5.93;2.10;;;36.20;37.60;;;;;;5009816;28;20087;-88
2022/08/10 13:10:08;;;;;;;3.22;2.28;;;36.10;36.60;;;;;;5018820;28;20125;-89
2022/08/10 13:12:39;;;;;;;4.60;1.73;;;36.00;36.50;;;;;;5044343;28;20455;-88
2022/08/10 13:15:13;;;;;;;2.20;2.00;;;36.00;35.40;;;;;;5015320;28;20029;-89
2022/08/10 13:17:38;;;;;;;2.42;2.08;;;36.00;36.60;;;;;;5008275;28;20035;-87
2022/08/10 13:20:33;;;;;;;3.65;2.10;;;36.20;37.80;;;;;;5006337;28;20556;-87
2022/08/10 13:23:01;;;;;;;3.92;1.85;;;37.10;36.80;;;;;;5000918;28;20038;-87
2022/08/10 13:25:47;;;;;;;7.07;2.30;;;36.60;36.20;;;;;;5022847;28;20061;-87